Terminal Aerodrome Forecast
Issued by NWS State College, PA

Home | Current Version | Previous Version | Text Only | Print | Product List | Glossary On
Versions: 1 2 3 4 5 6 7 8 9 10 11 12 13 14 15 16 17 18 19 20 21 22 23 24 25 26 27 28 29 30 31 32 33 34 35 36 37 38
000
FTUS41 KCTP 171735
TAFIPT
TAF
KIPT 171735Z 1718/1818 12007KT P6SM BKN200
     FM172000 12008G14KT P6SM BKN100
     FM172200 12008KT 1 1/2SM -SN BKN040 OVC080
     FM180000 12008KT 3/4SM -SN BR OVC018
     FM180400 14006KT 1 1/2SM -SN BR OVC015
     FM180800 28008KT P6SM -SHSN OVC035
     FM181300 29010G20KT P6SM SCT030=

USA.gov is the U.S. government's official web portal to all federal, state and local government web resources and services.